createdAt,value
2019-05-12T00:00:34.464Z,11.38
2019-05-12T00:03:03.319Z,10.80
2019-05-12T00:05:32.188Z,10.40
2019-05-12T00:08:01.047Z,10.15
2019-05-12T00:10:29.913Z,10.35
2019-05-12T00:12:58.771Z,10.20
2019-05-12T00:15:28.123Z,10.40
2019-05-12T00:17:58.609Z,9.28
2019-05-12T00:20:28.495Z,10.40
2019-05-12T00:22:59.223Z,9.73
2019-05-12T00:25:28.432Z,10.38
2019-05-12T00:27:58.630Z,9.48
2019-05-12T00:30:41.758Z,10.08
2019-05-12T00:33:10.615Z,9.20
2019-05-12T00:35:39.695Z,9.45
2019-05-12T00:38:09.406Z,9.58
2019-05-12T00:40:39.489Z,9.25
2019-05-12T00:43:09.214Z,9.90
2019-05-12T00:45:39.019Z,11.68
2019-05-12T00:48:09.247Z,9.80
2019-05-12T00:50:39.425Z,10.50
2019-05-12T00:53:09.352Z,9.60
2019-05-12T00:55:38.581Z,10.55
2019-05-12T00:58:08.488Z,11.20
2019-05-12T01:00:40.625Z,10.53
2019-05-12T01:03:09.033Z,11.22
2019-05-12T01:05:38.577Z,10.23
2019-05-12T01:08:09.240Z,10.43
2019-05-12T01:10:39.131Z,10.03
2019-05-12T01:13:08.657Z,9.98
2019-05-12T01:15:38.188Z,10.10
2019-05-12T01:18:09.423Z,10.48
2019-05-12T01:20:39.134Z,10.53
2019-05-12T01:23:08.917Z,11.48
2019-05-12T01:25:39.512Z,11.40
2019-05-12T01:28:09.263Z,10.85
2019-05-12T01:30:39.115Z,10.55
2019-05-12T01:33:08.899Z,11.65
2019-05-12T01:35:39.037Z,10.85
2019-05-12T01:38:08.470Z,10.38
2019-05-12T01:40:39.204Z,11.30
2019-05-12T01:43:08.722Z,11.12
2019-05-12T01:45:39.353Z,11.08
2019-05-12T01:48:09.125Z,11.83
2019-05-12T01:50:38.843Z,12.50
2019-05-12T01:53:08.526Z,11.20
2019-05-12T01:55:38.857Z,11.85
2019-05-12T01:58:08.878Z,11.63
2019-05-12T02:00:38.764Z,13.15
2019-05-12T02:03:08.974Z,13.35
2019-05-12T02:05:40.398Z,13.18
2019-05-12T02:08:10.894Z,13.38
2019-05-12T02:10:39.759Z,14.07
2019-05-12T02:13:08.624Z,14.55
2019-05-12T02:15:38.338Z,14.47
2019-05-12T02:18:09.175Z,14.05
2019-05-12T02:20:38.289Z,13.72
2019-05-12T02:23:08.962Z,14.25
2019-05-12T02:25:38.295Z,12.98
2019-05-12T02:28:09.371Z,13.38
2019-05-12T02:30:41.510Z,12.90
2019-05-12T02:33:08.448Z,12.40
2019-05-12T02:35:37.308Z,12.15
2019-05-12T02:38:06.180Z,12.15
2019-05-12T02:40:35.291Z,11.12
2019-05-12T02:43:05.751Z,10.98
2019-05-12T02:45:35.944Z,10.82
2019-05-12T02:48:05.612Z,10.58
2019-05-12T02:50:36.201Z,10.70
2019-05-12T02:53:05.967Z,10.15
2019-05-12T02:55:35.606Z,10.58
2019-05-12T02:58:05.919Z,10.10
2019-05-12T03:00:36.107Z,10.32
2019-05-12T03:03:05.947Z,9.90
2019-05-12T03:05:35.416Z,9.53
2019-05-12T03:08:04.986Z,8.60
2019-05-12T03:10:35.525Z,8.98
2019-05-12T03:13:04.703Z,8.15
2019-05-12T03:15:36.555Z,8.50
2019-05-12T03:18:06.265Z,8.10
2019-05-12T03:20:36.252Z,8.48
2019-05-12T03:23:06.603Z,8.28
2019-05-12T03:25:37.119Z,8.60
2019-05-12T03:28:09.280Z,7.47
2019-05-12T03:30:39.889Z,7.58
2019-05-12T03:33:11.129Z,7.67
2019-05-12T03:35:43.754Z,7.72
2019-05-12T03:38:09.201Z,7.60
2019-05-12T03:40:38.909Z,7.78
2019-05-12T03:43:08.115Z,8.08
2019-05-12T03:45:36.990Z,7.58
2019-05-12T03:48:05.930Z,8.25
2019-05-12T03:50:35.514Z,7.55
2019-05-12T03:53:10.204Z,7.90
2019-05-12T03:55:41.391Z,8.05
2019-05-12T03:58:06.479Z,7.90
2019-05-12T04:00:36.360Z,7.80
2019-05-12T04:03:05.714Z,7.53
2019-05-12T04:05:37.522Z,7.20
2019-05-12T04:08:06.806Z,7.67
2019-05-12T04:10:36.694Z,7.80
2019-05-12T04:13:06.185Z,7.55
2019-05-12T04:15:36.540Z,7.37
2019-05-12T04:18:06.454Z,7.95
2019-05-12T04:20:36.425Z,8.30
2019-05-12T04:23:06.575Z,7.50
2019-05-12T04:25:50.879Z,7.58
2019-05-12T04:28:06.596Z,7.53
2019-05-12T04:30:36.071Z,8.18
2019-05-12T04:33:05.599Z,6.83
2019-05-12T04:35:35.728Z,6.78
2019-05-12T04:38:05.307Z,6.83
2019-05-12T04:40:35.932Z,6.67
2019-05-12T04:43:06.196Z,6.10
2019-05-12T04:45:35.605Z,6.45
2019-05-12T04:48:05.769Z,6.35
2019-05-12T04:50:36.025Z,5.42
2019-05-12T04:53:06.338Z,5.80
2019-05-12T04:55:36.312Z,6.00
2019-05-12T04:58:05.850Z,6.10
2019-05-12T05:00:35.718Z,5.60
2019-05-12T05:03:05.674Z,5.53
2019-05-12T05:05:35.576Z,5.58
2019-05-12T05:08:05.321Z,5.40
2019-05-12T05:10:34.781Z,5.30
2019-05-12T05:13:05.291Z,5.55
2019-05-12T05:15:35.267Z,4.70
2019-05-12T05:18:06.266Z,5.03
2019-05-12T05:20:35.087Z,5.22
2019-05-12T05:23:04.304Z,4.90
2019-05-12T05:25:34.630Z,4.80
2019-05-12T05:28:04.326Z,4.40
2019-05-12T05:30:34.126Z,4.50
2019-05-12T05:33:04.550Z,4.42
2019-05-12T05:35:39.216Z,4.47
2019-05-12T05:38:05.429Z,4.10
2019-05-12T05:40:35.697Z,3.72
2019-05-12T05:43:12.421Z,3.77
2019-05-12T05:45:35.717Z,3.87
2019-05-12T05:48:09.433Z,3.85
2019-05-12T05:50:35.189Z,4.15
2019-05-12T05:53:09.286Z,4.65
2019-05-12T05:55:35.647Z,4.20
2019-05-12T05:58:10.028Z,4.10
2019-05-12T06:00:38.793Z,4.15
2019-05-12T06:03:06.142Z,3.98
2019-05-12T06:05:38.539Z,4.67
2019-05-12T06:08:09.410Z,3.70
2019-05-12T06:10:40.521Z,4.12
2019-05-12T06:13:08.975Z,3.92
2019-05-12T06:15:40.564Z,3.92
2019-05-12T06:18:08.395Z,3.80
2019-05-12T06:20:38.255Z,3.40
2019-05-12T06:23:07.275Z,3.95
2019-05-12T06:25:46.206Z,3.10
2019-05-12T06:28:08.976Z,3.20
2019-05-12T06:30:44.494Z,3.17
2019-05-12T06:33:07.775Z,3.42
2019-05-12T06:35:42.146Z,3.50
2019-05-12T06:38:07.414Z,3.15
2019-05-12T06:40:40.811Z,3.22
2019-05-12T06:43:06.826Z,3.08
2019-05-12T06:45:42.100Z,2.90
2019-05-12T06:48:07.310Z,3.20
2019-05-12T06:50:39.083Z,3.12
2019-05-12T06:53:06.948Z,3.20
2019-05-12T06:55:39.118Z,3.12
2019-05-12T06:58:06.355Z,2.80
2019-05-12T07:00:35.495Z,3.20
2019-05-12T07:03:05.139Z,2.70
2019-05-12T07:05:38.473Z,2.92
2019-05-12T07:08:04.628Z,3.08
2019-05-12T07:10:42.136Z,2.67
2019-05-12T07:13:05.510Z,2.87
2019-05-12T07:15:40.007Z,3.15
2019-05-12T07:18:17.855Z,2.70
2019-05-12T07:20:47.047Z,2.77
2019-05-12T07:23:19.742Z,2.95
2019-05-12T07:25:46.459Z,2.95
2019-05-12T07:28:15.605Z,2.52
2019-05-12T07:30:44.460Z,2.75
2019-05-12T07:33:14.677Z,2.95
2019-05-12T07:35:44.597Z,3.30
2019-05-12T07:38:20.827Z,2.85
2019-05-12T07:40:45.443Z,3.00
2019-05-12T07:43:18.561Z,3.20
2019-05-12T07:45:45.837Z,3.00
2019-05-12T07:48:14.716Z,3.30
2019-05-12T07:50:43.649Z,3.00
2019-05-12T07:53:14.522Z,3.17
2019-05-12T07:55:47.595Z,3.37
2019-05-12T07:58:18.752Z,3.55
2019-05-12T08:00:45.275Z,3.30
2019-05-12T08:03:18.996Z,3.40
2019-05-12T08:05:44.740Z,2.90
2019-05-12T08:08:14.550Z,3.37
2019-05-12T08:10:44.336Z,3.50
2019-05-12T08:13:14.821Z,4.40
2019-05-12T08:15:45.763Z,4.03
2019-05-12T08:18:14.543Z,4.12
2019-05-12T08:20:43.682Z,3.70
2019-05-12T08:23:14.080Z,3.10
2019-05-12T08:25:43.737Z,3.00
2019-05-12T08:28:18.325Z,2.87
2019-05-12T08:30:47.541Z,2.60
2019-05-12T08:33:14.599Z,3.05
2019-05-12T08:35:44.042Z,2.72
2019-05-12T08:38:14.546Z,2.33
2019-05-12T08:40:50.869Z,2.45
2019-05-12T08:43:15.055Z,2.62
2019-05-12T08:45:44.447Z,2.70
2019-05-12T08:48:21.532Z,2.12
2019-05-12T08:50:46.189Z,3.00
2019-05-12T08:53:20.451Z,2.50
2019-05-12T08:55:45.009Z,2.72
2019-05-12T08:58:29.830Z,2.40
2019-05-12T09:00:50.206Z,3.05
2019-05-12T09:03:14.993Z,2.70
2019-05-12T09:05:44.651Z,2.60
2019-05-12T09:08:14.049Z,2.70
2019-05-12T09:10:45.146Z,2.90
2019-05-12T09:13:14.367Z,2.92
2019-05-12T09:15:43.889Z,2.33
2019-05-12T09:18:14.777Z,2.98
2019-05-12T09:20:51.248Z,1.95
2019-05-12T09:23:14.231Z,2.20
2019-05-12T09:25:45.344Z,2.17
2019-05-12T09:28:13.954Z,2.25
2019-05-12T09:30:48.080Z,2.42
2019-05-12T09:33:14.145Z,2.65
2019-05-12T09:35:43.978Z,2.70
2019-05-12T09:38:21.421Z,2.50
2019-05-12T09:40:43.928Z,2.55
2019-05-12T09:43:13.693Z,2.40
2019-05-12T09:45:52.099Z,2.60
2019-05-12T09:48:14.211Z,2.95
2019-05-12T09:50:46.261Z,2.30
2019-05-12T09:53:14.598Z,2.60
2019-05-12T09:55:44.435Z,2.52
2019-05-12T09:58:22.757Z,2.33
2019-05-12T10:00:44.201Z,2.52
2019-05-12T10:03:13.968Z,2.33
2019-05-12T10:05:44.156Z,2.35
2019-05-12T10:08:14.040Z,1.92
2019-05-12T10:10:46.752Z,2.12
2019-05-12T10:13:14.631Z,2.10
2019-05-12T10:15:43.491Z,2.00
2019-05-12T10:18:14.307Z,2.05
2019-05-12T10:20:44.127Z,2.25
2019-05-12T10:23:17.360Z,1.98
2019-05-12T10:25:44.647Z,1.92
2019-05-12T10:28:16.185Z,2.05
2019-05-12T10:30:47.267Z,2.08
2019-05-12T10:33:15.618Z,2.10
2019-05-12T10:35:44.463Z,1.92
2019-05-12T10:38:13.895Z,1.90
2019-05-12T10:40:44.398Z,1.67
2019-05-12T10:43:13.307Z,1.80
2019-05-12T10:45:44.172Z,1.92
2019-05-12T10:48:14.157Z,1.90
2019-05-12T10:50:44.245Z,1.75
2019-05-12T10:53:15.614Z,2.10
2019-05-12T10:55:44.194Z,1.95
2019-05-12T10:58:14.531Z,2.00
2019-05-12T11:00:44.355Z,1.80
2019-05-12T11:03:15.576Z,2.00
2019-05-12T11:05:44.165Z,1.70
2019-05-12T11:08:14.297Z,1.62
2019-05-12T11:10:44.223Z,1.65
2019-05-12T11:13:14.195Z,1.60
2019-05-12T11:15:46.239Z,1.50
2019-05-12T11:18:20.693Z,1.45
2019-05-12T11:20:45.983Z,1.52
2019-05-12T11:23:14.834Z,1.98
2019-05-12T11:25:44.083Z,1.60
2019-05-12T11:28:14.050Z,1.80
2019-05-12T11:30:43.782Z,1.60
2019-05-12T11:33:13.006Z,1.87
2019-05-12T11:35:43.512Z,1.65
2019-05-12T11:38:13.470Z,1.80
2019-05-12T11:40:43.760Z,1.70
2019-05-12T11:43:14.312Z,1.42
2019-05-12T11:45:44.213Z,1.65
2019-05-12T11:48:14.363Z,1.32
2019-05-12T11:50:47.794Z,1.30
2019-05-12T11:53:14.047Z,1.32
2019-05-12T11:55:44.403Z,1.57
2019-05-12T11:58:13.262Z,1.50
2019-05-12T12:00:44.132Z,1.55
2019-05-12T12:03:17.874Z,1.55
2019-05-12T12:05:44.383Z,1.20
2019-05-12T12:08:14.463Z,1.40
2019-05-12T12:10:43.546Z,1.20
2019-05-12T12:13:14.086Z,1.27
2019-05-12T12:15:43.136Z,1.40
2019-05-12T12:18:13.624Z,1.30
2019-05-12T12:20:44.258Z,1.20
2019-05-12T12:23:14.059Z,1.37
2019-05-12T12:25:48.160Z,1.45
2019-05-12T12:28:13.939Z,1.10
2019-05-12T12:30:47.348Z,1.10
2019-05-12T12:33:14.308Z,1.32
2019-05-12T12:35:44.536Z,1.37
2019-05-12T12:38:14.229Z,1.30
2019-05-12T12:40:44.146Z,1.25
2019-05-12T12:43:13.704Z,1.75
2019-05-12T12:45:47.303Z,1.40
2019-05-12T12:48:19.413Z,1.50
2019-05-12T12:50:46.938Z,1.25
2019-05-12T12:53:15.779Z,1.10
2019-05-12T12:55:45.250Z,1.10
2019-05-12T12:58:14.239Z,1.25
2019-05-12T13:00:47.806Z,1.35
2019-05-12T13:03:14.341Z,1.30
2019-05-12T13:05:43.888Z,1.20
2019-05-12T13:08:12.940Z,1.30
2019-05-12T13:10:49.477Z,1.15
2019-05-12T13:13:14.199Z,1.15
2019-05-12T13:15:44.422Z,1.17
2019-05-12T13:18:17.967Z,1.35
2019-05-12T13:20:44.055Z,1.10
2019-05-12T13:23:14.147Z,1.27
2019-05-12T13:25:48.435Z,1.30
2019-05-12T13:28:18.796Z,1.15
2019-05-12T13:30:48.858Z,1.20
2019-05-12T13:33:18.277Z,1.10
2019-05-12T13:35:50.140Z,1.15
2019-05-12T13:38:17.063Z,1.30
2019-05-12T13:40:45.919Z,1.15
2019-05-12T13:43:19.353Z,1.47
2019-05-12T13:45:45.343Z,1.30
2019-05-12T13:48:15.790Z,1.10
2019-05-12T13:50:44.739Z,1.12
2019-05-12T13:53:14.144Z,1.10
2019-05-12T13:55:45.449Z,1.20
2019-05-12T13:58:13.713Z,1.37
2019-05-12T14:00:50.773Z,1.30
2019-05-12T14:03:14.040Z,1.60
2019-05-12T14:05:50.609Z,1.32
2019-05-12T14:08:14.593Z,1.22
2019-05-12T14:10:53.248Z,1.00
2019-05-12T14:13:14.503Z,1.20
2019-05-12T14:15:44.464Z,1.20
2019-05-12T14:18:18.503Z,1.00
2019-05-12T14:20:45.208Z,1.30
2019-05-12T14:23:14.777Z,1.25
2019-05-12T14:25:44.867Z,1.30
2019-05-12T14:28:16.587Z,1.45
2019-05-12T14:30:49.632Z,1.52
2019-05-12T14:33:18.141Z,1.30
2019-05-12T14:35:46.089Z,1.40
2019-05-12T14:38:19.303Z,1.37
2019-05-12T14:40:45.611Z,1.27
2019-05-12T14:43:16.902Z,1.30
2019-05-12T14:45:45.083Z,1.07
2019-05-12T14:48:13.946Z,1.07
2019-05-12T14:50:44.159Z,1.15
2019-05-12T14:53:14.441Z,1.40
2019-05-12T14:55:43.531Z,1.12
2019-05-12T14:58:18.200Z,1.00
2019-05-12T15:00:44.620Z,1.25
2019-05-12T15:03:16.331Z,1.20
2019-05-12T15:05:47.278Z,1.10
2019-05-12T15:08:20.272Z,1.25
2019-05-12T15:10:46.576Z,1.30
2019-05-12T15:13:15.432Z,1.30
2019-05-12T15:15:44.279Z,1.20
2019-05-12T15:18:15.936Z,1.00
2019-05-12T15:20:49.756Z,0.90
2019-05-12T15:23:14.580Z,0.98
2019-05-12T15:25:43.732Z,1.17
2019-05-12T15:28:14.550Z,1.30
2019-05-12T15:30:43.595Z,1.10
2019-05-12T15:33:13.855Z,1.25
2019-05-12T15:35:43.913Z,1.10
2019-05-12T15:38:14.882Z,1.10
2019-05-12T15:40:43.863Z,0.93
2019-05-12T15:43:13.829Z,0.90
2019-05-12T15:45:43.633Z,0.93
2019-05-12T15:48:14.592Z,0.98
2019-05-12T15:50:45.682Z,1.05
2019-05-12T15:53:21.775Z,1.22
2019-05-12T15:55:44.359Z,1.20
2019-05-12T15:58:14.197Z,1.10
2019-05-12T16:00:43.829Z,1.30
2019-05-12T16:03:13.228Z,1.25
2019-05-12T16:05:44.391Z,1.05
2019-05-12T16:08:14.337Z,1.00
2019-05-12T16:10:43.851Z,1.95
2019-05-12T16:13:15.459Z,1.40
2019-05-12T16:15:43.883Z,1.92
2019-05-12T16:18:14.506Z,1.82
2019-05-12T16:20:44.380Z,3.55
2019-05-12T16:23:15.487Z,2.12
2019-05-12T16:25:43.819Z,1.25
2019-05-12T16:28:17.591Z,0.90
2019-05-12T16:30:43.929Z,1.17
2019-05-12T16:33:20.502Z,4.20
2019-05-12T16:35:44.736Z,1.52
2019-05-12T16:38:18.052Z,1.40
2019-05-12T16:40:45.538Z,2.40
2019-05-12T16:43:14.968Z,1.90
2019-05-12T16:45:43.822Z,2.15
2019-05-12T16:48:28.444Z,1.40
2019-05-12T16:50:43.826Z,1.37
2019-05-12T16:53:21.342Z,1.00
2019-05-12T16:55:46.610Z,1.10
2019-05-12T16:58:14.839Z,0.85
2019-05-12T17:00:45.125Z,1.00
2019-05-12T17:03:14.572Z,1.05
2019-05-12T17:05:44.775Z,1.15
2019-05-12T17:08:14.017Z,1.25
2019-05-12T17:10:49.659Z,1.00
2019-05-12T17:13:15.979Z,1.10
2019-05-12T17:15:48.839Z,1.20
2019-05-12T17:18:14.615Z,1.20
2019-05-12T17:20:46.973Z,1.22
2019-05-12T17:23:14.075Z,1.30
2019-05-12T17:25:42.944Z,1.30
2019-05-12T17:28:13.321Z,1.40
2019-05-12T17:30:43.649Z,1.32
2019-05-12T17:33:22.466Z,1.10
2019-05-12T17:35:44.712Z,1.20
2019-05-12T17:38:19.758Z,1.10
2019-05-12T17:40:44.317Z,1.27
2019-05-12T17:43:13.639Z,1.30
2019-05-12T17:45:44.336Z,1.02
2019-05-12T17:48:14.204Z,1.30
2019-05-12T17:50:46.670Z,1.05
2019-05-12T17:53:17.801Z,1.47
2019-05-12T17:55:50.783Z,1.27
2019-05-12T17:58:16.313Z,1.25
2019-05-12T18:00:47.651Z,1.20
2019-05-12T18:03:21.925Z,1.30
2019-05-12T18:05:47.958Z,1.20
2019-05-12T18:08:16.835Z,1.55
2019-05-12T18:10:47.967Z,1.40
2019-05-12T18:13:23.041Z,1.40
2019-05-12T18:15:46.872Z,1.20
2019-05-12T18:18:17.538Z,1.25
2019-05-12T18:20:46.289Z,1.60
2019-05-12T18:23:19.755Z,1.50
2019-05-12T18:25:45.699Z,1.50
2019-05-12T18:28:14.547Z,1.77
2019-05-12T18:30:43.398Z,2.08
2019-05-12T18:33:13.774Z,2.50
2019-05-12T18:35:43.987Z,2.62
2019-05-12T18:38:18.189Z,2.90
2019-05-12T18:40:43.467Z,2.52
2019-05-12T18:43:14.164Z,2.47
2019-05-12T18:45:42.884Z,2.35
2019-05-12T18:48:19.869Z,2.30
2019-05-12T18:50:44.158Z,2.72
2019-05-12T18:53:14.463Z,2.75
2019-05-12T18:55:44.199Z,2.10
2019-05-12T18:58:14.974Z,1.65
2019-05-12T19:00:43.987Z,2.45
2019-05-12T19:03:14.056Z,1.85
2019-05-12T19:05:43.732Z,1.70
2019-05-12T19:08:14.009Z,1.87
2019-05-12T19:10:44.291Z,1.80
2019-05-12T19:13:13.707Z,1.90
2019-05-12T19:15:44.096Z,1.92
2019-05-12T19:18:17.890Z,1.70
2019-05-12T19:20:43.624Z,1.60
2019-05-12T19:23:14.244Z,1.77
2019-05-12T19:25:43.721Z,1.80
2019-05-12T19:28:13.632Z,2.10
2019-05-12T19:30:43.742Z,1.98
2019-05-12T19:33:13.559Z,2.25
2019-05-12T19:35:42.820Z,1.90
2019-05-12T19:38:15.165Z,1.47
2019-05-12T19:40:47.307Z,1.40
2019-05-12T19:43:14.250Z,1.50
2019-05-12T19:45:43.590Z,1.60
2019-05-12T19:48:23.597Z,2.12
2019-05-12T19:50:44.583Z,2.20
2019-05-12T19:53:13.821Z,2.40
2019-05-12T19:55:44.322Z,1.57
2019-05-12T19:58:13.490Z,1.75
2019-05-12T20:00:43.826Z,1.70
2019-05-12T20:03:13.854Z,2.00
2019-05-12T20:05:43.452Z,2.10
2019-05-12T20:08:13.680Z,1.92
2019-05-12T20:10:47.771Z,1.65
2019-05-12T20:13:14.012Z,1.70
2019-05-12T20:15:43.725Z,1.50
2019-05-12T20:18:14.702Z,1.65
2019-05-12T20:20:44.936Z,1.50
2019-05-12T20:23:14.278Z,1.50
2019-05-12T20:25:44.219Z,1.32
2019-05-12T20:28:14.393Z,1.47
2019-05-12T20:30:43.960Z,1.20
2019-05-12T20:33:13.801Z,1.70
2019-05-12T20:35:47.421Z,1.60
2019-05-12T20:38:14.833Z,1.62
2019-05-12T20:40:43.992Z,1.50
2019-05-12T20:43:14.763Z,1.57
2019-05-12T20:45:45.712Z,1.77
2019-05-12T20:48:19.658Z,1.70
2019-05-12T20:50:45.428Z,1.62
2019-05-12T20:53:14.460Z,1.72
2019-05-12T20:55:44.319Z,1.50
2019-05-12T20:58:13.694Z,1.70
2019-05-12T21:00:45.556Z,1.67
2019-05-12T21:03:13.780Z,1.80
2019-05-12T21:05:43.991Z,1.67
2019-05-12T21:08:15.299Z,1.50
2019-05-12T21:10:43.887Z,1.72
2019-05-12T21:13:14.671Z,1.60
2019-05-12T21:15:45.842Z,1.57
2019-05-12T21:18:14.833Z,1.80
2019-05-12T21:20:46.311Z,1.75
2019-05-12T21:23:14.564Z,2.08
2019-05-12T21:25:51.964Z,1.80
2019-05-12T21:28:14.829Z,1.80
2019-05-12T21:30:48.121Z,2.27
2019-05-12T21:33:15.434Z,1.75
2019-05-12T21:35:46.077Z,2.15
2019-05-12T21:38:18.947Z,2.20
2019-05-12T21:40:46.394Z,1.85
2019-05-12T21:43:15.488Z,1.92
2019-05-12T21:45:44.343Z,1.95
2019-05-12T21:48:15.201Z,1.90
2019-05-12T21:50:44.299Z,2.10
2019-05-12T21:53:17.436Z,2.00
2019-05-12T21:55:44.427Z,1.75
2019-05-12T21:58:15.287Z,1.80
2019-05-12T22:00:50.403Z,1.67
2019-05-12T22:03:17.916Z,2.22
2019-05-12T22:05:51.425Z,1.90
2019-05-12T22:08:22.157Z,1.90
2019-05-12T22:10:49.515Z,1.90
2019-05-12T22:13:18.440Z,1.87
2019-05-12T22:15:51.416Z,2.12
2019-05-12T22:18:17.861Z,2.00
2019-05-12T22:20:52.376Z,1.90
2019-05-12T22:23:17.334Z,2.20
2019-05-12T22:25:49.133Z,1.65
2019-05-12T22:28:16.746Z,1.90
2019-05-12T22:30:45.607Z,2.00
2019-05-12T22:33:14.693Z,1.82
2019-05-12T22:35:44.478Z,2.02
2019-05-12T22:38:16.602Z,2.25
2019-05-12T22:40:44.013Z,2.12
2019-05-12T22:43:14.200Z,1.77
2019-05-12T22:45:44.277Z,1.92
2019-05-12T22:48:13.825Z,1.95
2019-05-12T22:50:43.665Z,1.90
2019-05-12T22:53:13.370Z,2.65
2019-05-12T22:55:42.455Z,2.55
2019-05-12T22:58:18.255Z,4.00
2019-05-12T23:00:44.303Z,2.67
2019-05-12T23:03:14.972Z,2.40
2019-05-12T23:05:43.355Z,2.30
2019-05-12T23:08:14.107Z,2.20
2019-05-12T23:10:51.290Z,2.30
2019-05-12T23:13:14.200Z,2.72
2019-05-12T23:15:45.204Z,2.47
2019-05-12T23:18:13.667Z,2.25
2019-05-12T23:20:43.901Z,2.20
2019-05-12T23:23:15.362Z,1.92
2019-05-12T23:25:44.147Z,2.08
2019-05-12T23:28:13.168Z,1.80
2019-05-12T23:30:43.824Z,2.10
2019-05-12T23:33:14.110Z,1.90
2019-05-12T23:35:44.371Z,1.95
2019-05-12T23:38:18.823Z,1.92
2019-05-12T23:40:43.904Z,1.77
2019-05-12T23:43:14.541Z,1.65
2019-05-12T23:45:44.458Z,1.50
2019-05-12T23:48:14.407Z,1.80
2019-05-12T23:50:43.838Z,1.60
2019-05-12T23:53:14.006Z,1.85
2019-05-12T23:55:43.782Z,1.40
2019-05-12T23:58:14.406Z,1.52
